createdAt,value
2019-05-18T00:00:53.743Z,46.83
2019-05-18T00:03:23.036Z,48.60
2019-05-18T00:05:52.434Z,49.93
2019-05-18T00:08:21.886Z,50.77
2019-05-18T00:10:51.284Z,50.63
2019-05-18T00:13:20.641Z,49.00
2019-05-18T00:15:50.088Z,50.63
2019-05-18T00:18:19.817Z,48.10
2019-05-18T00:20:49.296Z,49.57
2019-05-18T00:23:18.740Z,49.40
2019-05-18T00:25:48.131Z,51.23
2019-05-18T00:28:17.558Z,50.37
2019-05-18T00:30:46.957Z,49.10
2019-05-18T00:33:16.431Z,49.50
2019-05-18T00:35:45.816Z,48.27
2019-05-18T00:38:15.196Z,50.03
2019-05-18T00:40:44.601Z,50.63
2019-05-18T00:43:13.960Z,49.83
2019-05-18T00:45:43.300Z,51.13
2019-05-18T00:48:12.716Z,50.70
2019-05-18T00:50:42.093Z,50.87
2019-05-18T00:53:11.536Z,49.70
2019-05-18T00:55:40.926Z,50.10
2019-05-18T00:58:10.308Z,53.53
2019-05-18T01:00:39.759Z,50.77
2019-05-18T01:03:09.200Z,51.20
2019-05-18T01:05:38.582Z,50.80
2019-05-18T01:08:07.979Z,51.83
2019-05-18T01:10:37.392Z,52.67
2019-05-18T01:13:06.813Z,52.37
2019-05-18T01:15:36.337Z,49.40
2019-05-18T01:18:05.740Z,52.20
2019-05-18T01:20:35.079Z,49.70
2019-05-18T01:23:04.489Z,52.57
2019-05-18T01:25:33.860Z,50.20
2019-05-18T01:28:03.246Z,49.90
2019-05-18T01:30:32.621Z,49.83
2019-05-18T01:33:02.010Z,51.80
2019-05-18T01:35:31.397Z,50.20
2019-05-18T01:38:00.802Z,50.30
2019-05-18T01:40:30.264Z,50.70
2019-05-18T01:42:59.737Z,50.73
2019-05-18T01:45:29.132Z,49.73
2019-05-18T01:48:12.838Z,51.03
2019-05-18T01:50:29.547Z,52.20
2019-05-18T01:52:58.915Z,50.37
2019-05-18T01:55:28.312Z,49.60
2019-05-18T01:57:57.717Z,49.30
2019-05-18T02:00:27.213Z,49.13
2019-05-18T02:02:56.681Z,51.27
2019-05-18T02:05:26.128Z,49.60
2019-05-18T02:07:55.462Z,51.93
2019-05-18T02:10:24.872Z,52.20
2019-05-18T02:12:54.251Z,50.10
2019-05-18T02:15:23.596Z,50.47
2019-05-18T02:17:52.999Z,50.70
2019-05-18T02:20:22.390Z,49.93
2019-05-18T02:22:51.842Z,48.60
2019-05-18T02:25:21.134Z,49.77
2019-05-18T02:27:50.532Z,51.00
2019-05-18T02:30:20.171Z,50.53
2019-05-18T02:32:49.526Z,50.10
2019-05-18T02:35:18.961Z,53.87
2019-05-18T02:37:48.375Z,51.67
2019-05-18T02:40:17.882Z,51.10
2019-05-18T02:42:47.304Z,52.47
2019-05-18T02:45:16.694Z,50.03
2019-05-18T02:47:46.081Z,51.60
2019-05-18T02:50:15.482Z,49.20
2019-05-18T02:52:44.908Z,51.33
2019-05-18T02:55:14.301Z,51.27
2019-05-18T02:57:43.698Z,51.07
2019-05-18T03:00:13.066Z,53.17
2019-05-18T03:02:42.390Z,50.03
2019-05-18T03:05:11.913Z,51.00
2019-05-18T03:07:41.321Z,50.83
2019-05-18T03:10:10.936Z,51.33
2019-05-18T03:12:40.286Z,52.87
2019-05-18T03:15:09.932Z,53.10
2019-05-18T03:17:39.335Z,53.47
2019-05-18T03:20:08.941Z,55.50
2019-05-18T03:22:38.404Z,52.90
2019-05-18T03:25:08.112Z,50.93
2019-05-18T03:27:37.536Z,52.60
2019-05-18T03:30:07.301Z,53.80
2019-05-18T03:32:36.672Z,52.10
2019-05-18T03:35:06.210Z,55.87
2019-05-18T03:37:35.598Z,52.70
2019-05-18T03:40:05.450Z,53.43
2019-05-18T03:42:34.822Z,51.20
2019-05-18T03:45:04.396Z,52.73
2019-05-18T03:47:33.811Z,50.70
2019-05-18T03:50:03.198Z,52.57
2019-05-18T03:52:32.568Z,53.70
2019-05-18T03:55:01.953Z,51.67
2019-05-18T03:57:31.324Z,52.03
2019-05-18T04:00:01.203Z,54.30
2019-05-18T04:02:30.625Z,53.03
2019-05-18T04:05:00.025Z,51.67
2019-05-18T04:07:29.393Z,52.10
2019-05-18T04:09:58.701Z,54.00
2019-05-18T04:12:28.099Z,90.63
2019-05-18T04:14:57.414Z,54.53
2019-05-18T04:17:26.813Z,52.33
2019-05-18T04:19:56.182Z,51.87
2019-05-18T04:22:25.627Z,53.37
2019-05-18T04:24:55.020Z,52.27
2019-05-18T04:27:24.406Z,52.00
2019-05-18T04:29:53.840Z,52.93
2019-05-18T04:32:23.262Z,55.73
2019-05-18T04:34:52.667Z,53.60
2019-05-18T04:37:22.054Z,53.40
2019-05-18T04:39:51.479Z,52.87
2019-05-18T04:42:20.849Z,52.67
2019-05-18T04:44:50.256Z,53.77
2019-05-18T04:47:19.699Z,54.03
2019-05-18T04:50:03.944Z,53.20
2019-05-18T04:52:20.050Z,53.77
2019-05-18T04:54:49.480Z,54.33
2019-05-18T04:57:18.875Z,54.10
2019-05-18T04:59:48.279Z,50.03
2019-05-18T05:02:17.658Z,53.60
2019-05-18T05:04:47.053Z,52.87
2019-05-18T05:07:16.453Z,52.67
2019-05-18T05:09:45.864Z,52.13
2019-05-18T05:12:15.276Z,51.37
2019-05-18T05:14:44.649Z,51.70
2019-05-18T05:17:14.090Z,51.00
2019-05-18T05:19:43.460Z,51.50
2019-05-18T05:22:12.861Z,52.00
2019-05-18T05:24:42.269Z,51.87
2019-05-18T05:27:11.646Z,50.87
2019-05-18T05:29:41.034Z,52.30
2019-05-18T05:32:10.409Z,50.00
2019-05-18T05:34:39.821Z,51.23
2019-05-18T05:37:09.214Z,48.43
2019-05-18T05:39:38.481Z,51.37
2019-05-18T05:42:07.778Z,51.80
2019-05-18T05:44:37.217Z,51.17
2019-05-18T05:47:06.696Z,53.47
2019-05-18T05:49:36.039Z,51.40
2019-05-18T05:52:05.671Z,51.60
2019-05-18T05:54:34.948Z,50.77
2019-05-18T05:57:04.255Z,51.60
2019-05-18T05:59:33.649Z,49.63
2019-05-18T06:02:02.951Z,51.87
2019-05-18T06:04:32.276Z,54.47
2019-05-18T06:07:01.574Z,51.30
2019-05-18T06:09:31.002Z,52.53
2019-05-18T06:12:00.372Z,51.77
2019-05-18T06:14:29.672Z,50.10
2019-05-18T06:16:59.052Z,50.30
2019-05-18T06:19:28.485Z,49.87
2019-05-18T06:21:57.771Z,51.93
2019-05-18T06:24:27.318Z,51.37
2019-05-18T06:26:56.626Z,53.70
2019-05-18T06:29:26.076Z,51.60
2019-05-18T06:31:55.480Z,50.77
2019-05-18T06:34:24.879Z,52.80
2019-05-18T06:36:55.959Z,50.53
2019-05-18T06:39:25.498Z,50.17
2019-05-18T06:41:54.949Z,50.53
2019-05-18T06:44:24.346Z,51.70
2019-05-18T06:46:53.736Z,49.37
2019-05-18T06:49:23.123Z,52.77
2019-05-18T06:51:52.490Z,53.00
2019-05-18T06:54:21.862Z,52.60
2019-05-18T06:56:53.388Z,50.40
2019-05-18T06:59:23.287Z,52.53
2019-05-18T07:01:52.667Z,51.00
2019-05-18T07:04:22.032Z,56.00
2019-05-18T07:06:51.368Z,51.93
2019-05-18T07:09:20.767Z,51.30
2019-05-18T07:11:50.132Z,55.03
2019-05-18T07:14:25.800Z,54.60
2019-05-18T07:16:50.561Z,54.30
2019-05-18T07:19:19.947Z,55.13
2019-05-18T07:21:49.340Z,53.37
2019-05-18T07:24:18.796Z,54.20
2019-05-18T07:26:48.236Z,53.90
2019-05-18T07:29:17.695Z,52.97
2019-05-18T07:31:47.110Z,53.93
2019-05-18T07:34:16.578Z,54.80
2019-05-18T07:36:45.935Z,52.90
2019-05-18T07:39:15.323Z,54.00
2019-05-18T07:41:47.094Z,56.87
2019-05-18T07:44:15.896Z,54.20
2019-05-18T07:46:45.555Z,54.33
2019-05-18T07:49:15.041Z,56.33
2019-05-18T07:51:44.356Z,54.07
2019-05-18T07:54:13.752Z,55.27
2019-05-18T07:56:43.162Z,57.10
2019-05-18T07:59:12.539Z,55.10
2019-05-18T08:01:41.967Z,52.40
2019-05-18T08:04:11.364Z,54.50
2019-05-18T08:06:40.777Z,56.70
2019-05-18T08:09:10.120Z,55.27
2019-05-18T08:11:39.833Z,55.17
2019-05-18T08:14:09.246Z,57.03
2019-05-18T08:16:38.645Z,56.50
2019-05-18T08:19:08.210Z,57.53
2019-05-18T08:21:50.868Z,58.37
2019-05-18T08:24:08.697Z,54.43
2019-05-18T08:26:38.069Z,55.60
2019-05-18T08:29:07.512Z,57.73
2019-05-18T08:31:36.903Z,58.40
2019-05-18T08:34:06.284Z,55.53
2019-05-18T08:36:35.695Z,56.33
2019-05-18T08:39:06.054Z,57.60
2019-05-18T08:41:35.501Z,61.20
2019-05-18T08:44:04.862Z,57.17
2019-05-18T08:46:34.265Z,55.33
2019-05-18T08:49:03.655Z,55.97
2019-05-18T08:51:33.054Z,56.03
2019-05-18T08:54:02.433Z,59.33
2019-05-18T08:56:31.795Z,56.90
2019-05-18T08:59:01.170Z,58.40
2019-05-18T09:01:30.587Z,56.03
2019-05-18T09:04:00.138Z,58.53
2019-05-18T09:06:29.495Z,55.40
2019-05-18T09:08:59.149Z,55.37
2019-05-18T09:11:28.531Z,55.67
2019-05-18T09:13:57.938Z,55.07
2019-05-18T09:16:27.667Z,57.10
2019-05-18T09:18:56.986Z,57.23
2019-05-18T09:21:26.420Z,56.27
2019-05-18T09:23:55.828Z,55.80
2019-05-18T09:26:25.272Z,56.57
2019-05-18T09:28:54.721Z,55.40
2019-05-18T09:31:24.119Z,55.80
2019-05-18T09:33:53.537Z,57.27
2019-05-18T09:36:22.955Z,59.17
2019-05-18T09:38:52.470Z,58.60
2019-05-18T09:41:21.900Z,54.37
2019-05-18T09:43:51.728Z,55.53
2019-05-18T09:46:21.112Z,52.20
2019-05-18T09:48:50.500Z,57.10
2019-05-18T09:51:19.869Z,56.27
2019-05-18T09:53:51.570Z,52.53
2019-05-18T09:56:20.380Z,53.73
2019-05-18T09:58:49.820Z,55.80
2019-05-18T10:01:19.238Z,54.40
2019-05-18T10:03:48.671Z,52.43
2019-05-18T10:06:18.920Z,51.37
2019-05-18T10:08:48.361Z,52.53
2019-05-18T10:11:17.791Z,52.37
2019-05-18T10:13:47.200Z,53.13
2019-05-18T10:16:16.851Z,53.60
2019-05-18T10:18:46.713Z,56.07
2019-05-18T10:21:16.602Z,52.40
2019-05-18T10:23:46.155Z,50.70
2019-05-18T10:26:15.835Z,48.53
2019-05-18T10:28:45.299Z,48.43
2019-05-18T10:31:14.634Z,46.33
2019-05-18T10:33:44.020Z,50.87
2019-05-18T10:36:13.426Z,51.97
2019-05-18T10:38:42.803Z,51.83
2019-05-18T10:41:12.221Z,47.20
2019-05-18T10:43:41.671Z,49.90
2019-05-18T10:46:11.035Z,51.93
2019-05-18T10:48:40.549Z,50.67
2019-05-18T10:51:09.924Z,62.00
2019-05-18T10:53:39.308Z,50.20
2019-05-18T10:56:08.809Z,53.27
2019-05-18T10:58:38.292Z,51.47
2019-05-18T11:01:07.659Z,50.17
2019-05-18T11:03:37.044Z,51.23
2019-05-18T11:06:06.445Z,50.97
2019-05-18T11:08:38.379Z,53.17
2019-05-18T11:11:06.909Z,54.20
2019-05-18T11:13:36.592Z,52.20
2019-05-18T11:16:06.006Z,55.77
2019-05-18T11:18:35.390Z,53.17
2019-05-18T11:21:04.781Z,51.10
2019-05-18T11:23:43.087Z,51.43
2019-05-18T11:26:07.476Z,53.67
2019-05-18T11:28:36.878Z,52.97
2019-05-18T11:31:06.268Z,50.70
2019-05-18T11:33:35.605Z,50.10
2019-05-18T11:36:04.980Z,51.30
2019-05-18T11:38:34.779Z,47.83
2019-05-18T11:41:04.211Z,50.87
2019-05-18T11:43:33.622Z,53.00
2019-05-18T11:46:03.564Z,51.97
2019-05-18T11:48:35.012Z,48.77
2019-05-18T11:51:04.835Z,51.40
2019-05-18T11:53:34.147Z,54.37
2019-05-18T11:56:03.568Z,52.97
2019-05-18T11:58:32.954Z,52.27
2019-05-18T12:01:02.446Z,57.77
2019-05-18T12:03:31.927Z,52.50
2019-05-18T12:06:01.332Z,51.10
2019-05-18T12:08:31.044Z,51.43
2019-05-18T12:11:01.404Z,43.50
2019-05-18T12:13:31.108Z,54.43
2019-05-18T12:16:00.445Z,53.37
2019-05-18T12:18:29.810Z,49.87
2019-05-18T12:20:59.324Z,51.10
2019-05-18T12:23:28.739Z,46.90
2019-05-18T12:25:58.139Z,49.43
2019-05-18T12:28:27.524Z,49.35
2019-05-18T12:30:56.938Z,48.28
2019-05-18T12:33:26.318Z,45.73
2019-05-18T12:35:55.665Z,44.80
2019-05-18T12:38:25.065Z,48.70
2019-05-18T12:40:54.939Z,45.35
2019-05-18T12:43:24.327Z,50.23
2019-05-18T12:45:53.638Z,45.45
2019-05-18T12:48:23.137Z,43.37
2019-05-18T12:50:52.587Z,45.40
2019-05-18T12:53:22.878Z,44.53
2019-05-18T12:55:52.523Z,47.57
2019-05-18T12:58:21.911Z,43.23
2019-05-18T13:00:51.303Z,38.20
2019-05-18T13:03:20.697Z,32.87
2019-05-18T13:05:50.125Z,27.98
2019-05-18T13:08:19.523Z,29.07
2019-05-18T13:10:48.887Z,31.07
2019-05-18T13:13:18.300Z,38.02
2019-05-18T13:15:47.758Z,35.70
2019-05-18T13:18:17.112Z,34.60
2019-05-18T13:20:46.568Z,38.83
2019-05-18T13:23:15.925Z,45.05
2019-05-18T13:25:45.308Z,43.43
2019-05-18T13:28:14.695Z,43.93
2019-05-18T13:30:44.068Z,44.17
2019-05-18T13:33:13.474Z,41.37
2019-05-18T13:35:45.539Z,45.07
2019-05-18T13:38:14.040Z,41.87
2019-05-18T13:40:43.655Z,43.67
2019-05-18T13:43:13.132Z,40.90
2019-05-18T13:45:42.527Z,38.73
2019-05-18T13:48:11.953Z,36.83
2019-05-18T13:50:44.327Z,45.53
2019-05-18T13:53:12.373Z,50.33
2019-05-18T13:55:41.790Z,53.53
2019-05-18T13:58:11.204Z,46.83
2019-05-18T14:00:40.648Z,48.80
2019-05-18T14:03:10.030Z,47.57
2019-05-18T14:05:39.882Z,45.63
2019-05-18T14:08:09.367Z,45.07
2019-05-18T14:10:38.760Z,40.77
2019-05-18T14:13:08.182Z,38.27
2019-05-18T14:15:37.577Z,40.00
2019-05-18T14:18:06.999Z,37.53
2019-05-18T14:20:36.408Z,39.27
2019-05-18T14:23:05.816Z,40.47
2019-05-18T14:25:35.277Z,38.13
2019-05-18T14:28:04.990Z,35.13
2019-05-18T14:30:34.388Z,39.43
2019-05-18T14:33:04.014Z,38.23
2019-05-18T14:35:33.674Z,37.13
2019-05-18T14:38:03.510Z,34.83
2019-05-18T14:40:32.874Z,36.47
2019-05-18T14:43:02.260Z,37.67
2019-05-18T14:45:31.676Z,37.93
2019-05-18T14:48:01.028Z,40.03
2019-05-18T14:50:30.411Z,58.10
2019-05-18T14:52:59.703Z,53.60
2019-05-18T14:55:33.741Z,57.60
2019-05-18T14:58:00.081Z,57.67
2019-05-18T15:00:29.456Z,53.83
2019-05-18T15:02:58.781Z,56.43
2019-05-18T15:05:28.149Z,55.13
2019-05-18T15:07:57.501Z,59.57
2019-05-18T15:10:27.235Z,55.57
2019-05-18T15:12:56.582Z,52.57
2019-05-18T15:15:25.969Z,50.93
2019-05-18T15:17:55.457Z,52.73
2019-05-18T15:20:25.090Z,50.55
2019-05-18T15:22:54.465Z,51.23
2019-05-18T15:25:23.797Z,51.33
2019-05-18T15:27:53.112Z,49.58
2019-05-18T15:30:22.697Z,50.55
2019-05-18T15:32:52.066Z,49.47
2019-05-18T15:35:21.456Z,48.28
2019-05-18T15:37:50.881Z,50.00
2019-05-18T15:40:20.276Z,47.75
2019-05-18T15:42:49.683Z,48.73
2019-05-18T15:45:19.372Z,47.95
2019-05-18T15:47:48.689Z,47.40
2019-05-18T15:50:19.876Z,48.15
2019-05-18T15:52:49.184Z,49.53
2019-05-18T15:55:18.573Z,49.77
2019-05-18T15:57:47.976Z,47.20
2019-05-18T16:00:17.574Z,49.67
2019-05-18T16:02:46.944Z,48.37
2019-05-18T16:05:17.504Z,48.17
2019-05-18T16:07:46.962Z,48.27
2019-05-18T16:10:17.127Z,50.40
2019-05-18T16:12:46.508Z,49.80
2019-05-18T16:15:16.102Z,49.57
2019-05-18T16:17:45.511Z,46.13
2019-05-18T16:20:15.623Z,50.03
2019-05-18T16:22:45.310Z,47.73
2019-05-18T16:25:14.852Z,47.70
2019-05-18T16:27:44.202Z,49.17
2019-05-18T16:30:14.191Z,48.30
2019-05-18T16:32:43.646Z,48.37
2019-05-18T16:35:13.368Z,47.53
2019-05-18T16:37:42.749Z,48.97
2019-05-18T16:40:12.408Z,49.83
2019-05-18T16:42:41.755Z,50.97
2019-05-18T16:45:11.504Z,47.03
2019-05-18T16:47:40.764Z,50.33
2019-05-18T16:50:10.587Z,49.23
2019-05-18T16:52:39.864Z,48.17
2019-05-18T16:55:09.748Z,49.07
2019-05-18T16:57:39.031Z,50.40
2019-05-18T17:00:09.956Z,46.77
2019-05-18T17:02:39.256Z,47.47
2019-05-18T17:05:09.512Z,47.10
2019-05-18T17:07:38.984Z,43.50
2019-05-18T17:10:08.608Z,43.53
2019-05-18T17:12:37.986Z,41.87
2019-05-18T17:15:07.800Z,45.07
2019-05-18T17:17:37.342Z,46.70
2019-05-18T17:20:07.329Z,44.93
2019-05-18T17:22:36.745Z,43.83
2019-05-18T17:25:06.894Z,43.20
2019-05-18T17:27:36.276Z,43.33
2019-05-18T17:30:06.843Z,46.47
2019-05-18T17:32:36.257Z,43.23
2019-05-18T17:35:06.017Z,44.40
2019-05-18T17:37:35.389Z,43.70
2019-05-18T17:40:05.341Z,43.00
2019-05-18T17:42:34.718Z,44.53
2019-05-18T17:45:04.132Z,45.47
2019-05-18T17:47:33.540Z,52.10
2019-05-18T17:50:02.918Z,44.33
2019-05-18T17:52:32.342Z,47.03
2019-05-18T17:55:01.747Z,45.40
2019-05-18T17:57:31.141Z,45.13
2019-05-18T18:00:00.560Z,44.23
2019-05-18T18:02:30.059Z,46.90
2019-05-18T18:04:59.457Z,44.73
2019-05-18T18:07:28.878Z,47.30
2019-05-18T18:09:58.247Z,45.33
2019-05-18T18:12:27.669Z,45.50
2019-05-18T18:14:57.229Z,44.40
2019-05-18T18:17:26.634Z,46.57
2019-05-18T18:19:56.034Z,47.73
2019-05-18T18:22:25.432Z,47.77
2019-05-18T18:24:54.956Z,47.50
2019-05-18T18:27:26.679Z,46.23
2019-05-18T18:29:55.376Z,47.20
2019-05-18T18:32:24.885Z,47.97
2019-05-18T18:34:54.253Z,44.10
2019-05-18T18:37:23.649Z,42.97
2019-05-18T18:39:53.145Z,43.07
2019-05-18T18:42:22.517Z,41.50
2019-05-18T18:44:51.829Z,42.97
2019-05-18T18:47:21.244Z,41.53
2019-05-18T18:49:50.529Z,42.13
2019-05-18T18:52:19.915Z,41.67
2019-05-18T18:54:49.211Z,41.37
2019-05-18T18:57:18.631Z,42.73
2019-05-18T18:59:47.911Z,42.27
2019-05-18T19:02:17.205Z,43.30
2019-05-18T19:04:46.636Z,47.17
2019-05-18T19:07:16.221Z,46.83
2019-05-18T19:09:45.589Z,44.23
2019-05-18T19:12:14.947Z,43.93
2019-05-18T19:14:44.326Z,45.23
2019-05-18T19:17:13.692Z,45.47
2019-05-18T19:19:43.052Z,49.50
2019-05-18T19:22:12.432Z,47.13
2019-05-18T19:24:41.728Z,46.00
2019-05-18T19:27:11.191Z,43.90
2019-05-18T19:29:40.584Z,42.07
2019-05-18T19:32:09.999Z,40.00
2019-05-18T19:34:39.552Z,38.80
2019-05-18T19:37:08.969Z,42.63
2019-05-18T19:39:38.352Z,40.57
2019-05-18T19:42:07.650Z,43.23
2019-05-18T19:44:36.964Z,42.87
2019-05-18T19:47:06.362Z,45.47
2019-05-18T19:49:35.846Z,46.10
2019-05-18T19:52:05.212Z,50.73
2019-05-18T19:54:34.563Z,50.07
2019-05-18T19:57:04.103Z,48.30
2019-05-18T19:59:33.468Z,54.87
2019-05-18T20:02:02.891Z,55.00
2019-05-18T20:04:32.257Z,52.20
2019-05-18T20:07:01.669Z,57.33
2019-05-18T20:09:31.100Z,55.00
2019-05-18T20:12:00.662Z,55.07
2019-05-18T20:14:30.073Z,58.83
2019-05-18T20:16:59.486Z,58.73
2019-05-18T20:19:38.638Z,57.13
2019-05-18T20:21:59.825Z,58.33
2019-05-18T20:24:29.280Z,57.20
2019-05-18T20:26:58.619Z,59.60
2019-05-18T20:29:28.062Z,61.73
2019-05-18T20:31:57.578Z,58.40
2019-05-18T20:34:26.975Z,58.00
2019-05-18T20:36:56.425Z,64.87
2019-05-18T20:39:25.883Z,64.40
2019-05-18T20:41:55.351Z,66.17
2019-05-18T20:44:24.834Z,66.33
2019-05-18T20:46:54.251Z,63.57
2019-05-18T20:49:23.752Z,64.97
2019-05-18T20:51:53.084Z,61.40
2019-05-18T20:54:22.491Z,63.20
2019-05-18T20:56:51.980Z,64.67
2019-05-18T20:59:21.412Z,63.27
2019-05-18T21:01:50.822Z,62.17
2019-05-18T21:04:20.274Z,57.70
2019-05-18T21:06:50.521Z,64.37
2019-05-18T21:09:22.585Z,61.47
2019-05-18T21:11:52.069Z,64.10
2019-05-18T21:14:21.572Z,62.20
2019-05-18T21:16:51.377Z,64.87
2019-05-18T21:19:21.048Z,60.17
2019-05-18T21:21:50.432Z,60.13
2019-05-18T21:24:21.728Z,64.03
2019-05-18T21:26:52.655Z,61.77
2019-05-18T21:29:28.454Z,59.30
2019-05-18T21:31:57.912Z,62.13
2019-05-18T21:34:27.467Z,64.27
2019-05-18T21:36:57.136Z,63.53
2019-05-18T21:39:26.666Z,62.97
2019-05-18T21:41:56.092Z,62.00
2019-05-18T21:44:27.925Z,61.70
2019-05-18T21:46:57.522Z,65.57
2019-05-18T21:49:28.165Z,60.87
2019-05-18T21:51:57.601Z,63.73
2019-05-18T21:54:27.055Z,63.13
2019-05-18T21:57:01.119Z,65.63
2019-05-18T21:59:32.681Z,63.93
2019-05-18T22:02:01.629Z,62.20
2019-05-18T22:04:31.216Z,66.17
2019-05-18T22:07:03.225Z,63.70
2019-05-18T22:09:35.682Z,62.70
2019-05-18T22:12:05.154Z,63.93
2019-05-18T22:14:38.501Z,61.07
2019-05-18T22:17:08.099Z,64.60
2019-05-18T22:19:40.443Z,64.10
2019-05-18T22:22:11.520Z,63.83
2019-05-18T22:24:41.123Z,59.97
2019-05-18T22:27:10.630Z,68.97
2019-05-18T22:29:40.222Z,60.43
2019-05-18T22:32:09.763Z,62.60
2019-05-18T22:34:42.218Z,65.77
2019-05-18T22:37:13.225Z,65.17
2019-05-18T22:39:45.701Z,63.07
2019-05-18T22:42:15.141Z,63.67
2019-05-18T22:44:44.890Z,69.37
2019-05-18T22:47:14.678Z,68.17
2019-05-18T22:49:44.132Z,66.43
2019-05-18T22:52:13.610Z,66.03
2019-05-18T22:54:43.051Z,67.00
2019-05-18T22:57:12.804Z,65.30
2019-05-18T22:59:45.040Z,65.63
2019-05-18T23:02:14.500Z,67.27
2019-05-18T23:04:44.132Z,65.63
2019-05-18T23:07:13.563Z,65.40
2019-05-18T23:09:43.004Z,68.20
2019-05-18T23:12:14.123Z,65.77
2019-05-18T23:14:43.848Z,64.80
2019-05-18T23:17:13.378Z,63.93
2019-05-18T23:19:45.673Z,65.47
2019-05-18T23:22:15.383Z,72.37
2019-05-18T23:24:47.228Z,69.47
2019-05-18T23:27:22.776Z,66.37
2019-05-18T23:29:52.170Z,65.30
2019-05-18T23:32:21.909Z,67.47
2019-05-18T23:34:51.301Z,72.20
2019-05-18T23:37:20.769Z,68.73
2019-05-18T23:39:50.329Z,69.50
2019-05-18T23:42:20.017Z,69.83
2019-05-18T23:44:49.491Z,72.23
2019-05-18T23:47:18.957Z,72.90
2019-05-18T23:49:48.261Z,71.40
2019-05-18T23:52:17.661Z,72.27
2019-05-18T23:54:47.742Z,73.23
2019-05-18T23:57:17.105Z,72.13
2019-05-18T23:59:46.521Z,70.90
